sensor_id;sensor_type;location;lat;lon;timestamp;P1;durP1;ratioP1;P2;durP2;ratioP2
82985;SDS011;72786;53.546;9.910;2023-11-19T00:01:55;12.52;;;5.18;;
82985;SDS011;72786;53.546;9.910;2023-11-19T00:04:23;10.48;;;4.65;;
82985;SDS011;72786;53.546;9.910;2023-11-19T00:06:49;12.95;;;5.55;;
82985;SDS011;72786;53.546;9.910;2023-11-19T00:09:15;11.55;;;4.90;;
82985;SDS011;72786;53.546;9.910;2023-11-19T00:11:44;12.50;;;4.88;;
82985;SDS011;72786;53.546;9.910;2023-11-19T00:14:19;12.00;;;5.18;;
82985;SDS011;72786;53.546;9.910;2023-11-19T00:16:46;12.07;;;5.10;;
82985;SDS011;72786;53.546;9.910;2023-11-19T00:19:12;12.25;;;4.68;;
82985;SDS011;72786;53.546;9.910;2023-11-19T00:21:39;9.25;;;4.35;;
82985;SDS011;72786;53.546;9.910;2023-11-19T00:24:07;11.05;;;4.50;;
82985;SDS011;72786;53.546;9.910;2023-11-19T00:26:34;8.27;;;3.88;;
82985;SDS011;72786;53.546;9.910;2023-11-19T00:29:00;8.23;;;3.70;;
82985;SDS011;72786;53.546;9.910;2023-11-19T00:31:27;7.97;;;3.88;;
82985;SDS011;72786;53.546;9.910;2023-11-19T00:33:54;9.13;;;3.97;;
82985;SDS011;72786;53.546;9.910;2023-11-19T00:36:21;7.13;;;3.50;;
82985;SDS011;72786;53.546;9.910;2023-11-19T00:38:47;7.55;;;3.60;;
82985;SDS011;72786;53.546;9.910;2023-11-19T00:41:14;6.18;;;3.28;;
82985;SDS011;72786;53.546;9.910;2023-11-19T00:43:42;8.93;;;3.70;;
82985;SDS011;72786;53.546;9.910;2023-11-19T00:46:10;8.43;;;3.88;;
82985;SDS011;72786;53.546;9.910;2023-11-19T00:48:40;8.07;;;3.42;;
82985;SDS011;72786;53.546;9.910;2023-11-19T00:51:06;8.85;;;3.63;;
82985;SDS011;72786;53.546;9.910;2023-11-19T00:53:33;7.88;;;3.67;;
82985;SDS011;72786;53.546;9.910;2023-11-19T00:56:00;8.50;;;3.65;;
82985;SDS011;72786;53.546;9.910;2023-11-19T00:58:26;8.30;;;3.08;;
82985;SDS011;72786;53.546;9.910;2023-11-19T01:00:53;6.18;;;2.92;;
82985;SDS011;72786;53.546;9.910;2023-11-19T01:03:20;7.05;;;2.90;;
82985;SDS011;72786;53.546;9.910;2023-11-19T01:05:46;5.82;;;3.08;;
82985;SDS011;72786;53.546;9.910;2023-11-19T01:08:13;6.13;;;2.47;;
82985;SDS011;72786;53.546;9.910;2023-11-19T01:10:42;6.57;;;2.72;;
82985;SDS011;72786;53.546;9.910;2023-11-19T01:13:08;5.28;;;2.58;;
82985;SDS011;72786;53.546;9.910;2023-11-19T01:15:35;6.20;;;2.85;;
82985;SDS011;72786;53.546;9.910;2023-11-19T01:18:02;4.63;;;2.40;;
82985;SDS011;72786;53.546;9.910;2023-11-19T01:20:31;4.80;;;2.15;;
82985;SDS011;72786;53.546;9.910;2023-11-19T01:22:57;5.30;;;2.13;;
82985;SDS011;72786;53.546;9.910;2023-11-19T01:25:24;4.80;;;2.55;;
82985;SDS011;72786;53.546;9.910;2023-11-19T01:27:50;4.47;;;2.05;;
82985;SDS011;72786;53.546;9.910;2023-11-19T01:30:17;4.65;;;1.88;;
82985;SDS011;72786;53.546;9.910;2023-11-19T01:32:43;4.20;;;2.20;;
82985;SDS011;72786;53.546;9.910;2023-11-19T01:35:09;4.88;;;2.22;;
82985;SDS011;72786;53.546;9.910;2023-11-19T01:37:36;3.35;;;1.77;;
82985;SDS011;72786;53.546;9.910;2023-11-19T01:40:03;3.55;;;1.80;;
82985;SDS011;72786;53.546;9.910;2023-11-19T01:42:38;3.97;;;1.90;;
82985;SDS011;72786;53.546;9.910;2023-11-19T01:45:05;4.43;;;2.05;;
82985;SDS011;72786;53.546;9.910;2023-11-19T01:47:36;3.13;;;1.70;;
82985;SDS011;72786;53.546;9.910;2023-11-19T01:50:04;3.60;;;1.38;;
82985;SDS011;72786;53.546;9.910;2023-11-19T01:52:34;2.75;;;1.30;;
82985;SDS011;72786;53.546;9.910;2023-11-19T01:55:04;3.03;;;1.70;;
82985;SDS011;72786;53.546;9.910;2023-11-19T01:57:34;2.78;;;1.45;;
82985;SDS011;72786;53.546;9.910;2023-11-19T02:00:04;4.45;;;1.30;;
82985;SDS011;72786;53.546;9.910;2023-11-19T02:02:39;2.53;;;1.10;;
82985;SDS011;72786;53.546;9.910;2023-11-19T02:05:06;3.38;;;1.30;;
82985;SDS011;72786;53.546;9.910;2023-11-19T02:07:33;2.72;;;1.80;;
82985;SDS011;72786;53.546;9.910;2023-11-19T02:10:00;2.40;;;1.23;;
82985;SDS011;72786;53.546;9.910;2023-11-19T02:12:30;2.17;;;1.27;;
82985;SDS011;72786;53.546;9.910;2023-11-19T02:15:00;3.35;;;1.10;;
82985;SDS011;72786;53.546;9.910;2023-11-19T02:17:27;2.22;;;1.20;;
82985;SDS011;72786;53.546;9.910;2023-11-19T02:19:54;2.92;;;1.45;;
82985;SDS011;72786;53.546;9.910;2023-11-19T02:22:20;2.20;;;1.17;;
82985;SDS011;72786;53.546;9.910;2023-11-19T02:24:47;1.95;;;1.13;;
82985;SDS011;72786;53.546;9.910;2023-11-19T02:27:26;2.85;;;1.20;;
82985;SDS011;72786;53.546;9.910;2023-11-19T02:30:00;2.85;;;1.30;;
82985;SDS011;72786;53.546;9.910;2023-11-19T02:32:27;2.33;;;1.27;;
82985;SDS011;72786;53.546;9.910;2023-11-19T02:34:54;3.38;;;1.65;;
82985;SDS011;72786;53.546;9.910;2023-11-19T02:37:34;3.90;;;1.77;;
82985;SDS011;72786;53.546;9.910;2023-11-19T02:40:00;3.53;;;1.90;;
82985;SDS011;72786;53.546;9.910;2023-11-19T02:42:29;3.83;;;2.13;;
82985;SDS011;72786;53.546;9.910;2023-11-19T02:44:55;3.45;;;2.00;;
82985;SDS011;72786;53.546;9.910;2023-11-19T02:47:22;3.33;;;2.08;;
82985;SDS011;72786;53.546;9.910;2023-11-19T02:49:50;2.95;;;1.67;;
82985;SDS011;72786;53.546;9.910;2023-11-19T02:52:19;3.00;;;1.90;;
82985;SDS011;72786;53.546;9.910;2023-11-19T02:54:46;3.80;;;1.55;;
82985;SDS011;72786;53.546;9.910;2023-11-19T02:57:12;3.22;;;1.77;;
82985;SDS011;72786;53.546;9.910;2023-11-19T02:59:47;4.15;;;1.60;;
82985;SDS011;72786;53.546;9.910;2023-11-19T03:02:15;2.90;;;1.60;;
82985;SDS011;72786;53.546;9.910;2023-11-19T03:04:42;2.97;;;1.73;;
82985;SDS011;72786;53.546;9.910;2023-11-19T03:07:11;5.00;;;1.85;;
82985;SDS011;72786;53.546;9.910;2023-11-19T03:09:41;3.72;;;2.05;;
82985;SDS011;72786;53.546;9.910;2023-11-19T03:12:10;3.45;;;1.85;;
82985;SDS011;72786;53.546;9.910;2023-11-19T03:14:37;3.08;;;1.90;;
82985;SDS011;72786;53.546;9.910;2023-11-19T03:17:03;5.50;;;1.60;;
82985;SDS011;72786;53.546;9.910;2023-11-19T03:19:31;3.63;;;1.60;;
82985;SDS011;72786;53.546;9.910;2023-11-19T03:21:57;3.10;;;1.80;;
82985;SDS011;72786;53.546;9.910;2023-11-19T03:24:25;3.60;;;1.80;;
82985;SDS011;72786;53.546;9.910;2023-11-19T03:26:52;3.22;;;1.90;;
82985;SDS011;72786;53.546;9.910;2023-11-19T03:29:19;4.20;;;1.85;;
82985;SDS011;72786;53.546;9.910;2023-11-19T03:31:45;3.80;;;1.85;;
82985;SDS011;72786;53.546;9.910;2023-11-19T03:34:11;3.75;;;1.85;;
82985;SDS011;72786;53.546;9.910;2023-11-19T03:36:38;3.13;;;2.00;;
82985;SDS011;72786;53.546;9.910;2023-11-19T03:39:06;3.78;;;1.80;;
82985;SDS011;72786;53.546;9.910;2023-11-19T03:41:32;3.47;;;2.22;;
82985;SDS011;72786;53.546;9.910;2023-11-19T03:44:02;3.13;;;1.95;;
82985;SDS011;72786;53.546;9.910;2023-11-19T03:46:28;3.60;;;2.13;;
82985;SDS011;72786;53.546;9.910;2023-11-19T03:48:56;3.22;;;1.67;;
82985;SDS011;72786;53.546;9.910;2023-11-19T03:51:23;3.30;;;2.00;;
82985;SDS011;72786;53.546;9.910;2023-11-19T03:53:49;3.22;;;1.88;;
82985;SDS011;72786;53.546;9.910;2023-11-19T03:56:15;2.80;;;1.65;;
82985;SDS011;72786;53.546;9.910;2023-11-19T03:58:43;3.72;;;1.90;;
82985;SDS011;72786;53.546;9.910;2023-11-19T04:01:12;3.38;;;1.83;;
82985;SDS011;72786;53.546;9.910;2023-11-19T04:03:42;3.60;;;2.20;;
82985;SDS011;72786;53.546;9.910;2023-11-19T04:06:11;4.45;;;2.40;;
82985;SDS011;72786;53.546;9.910;2023-11-19T04:08:37;4.82;;;2.72;;
82985;SDS011;72786;53.546;9.910;2023-11-19T04:11:04;5.13;;;2.85;;
82985;SDS011;72786;53.546;9.910;2023-11-19T04:13:31;7.15;;;2.95;;
82985;SDS011;72786;53.546;9.910;2023-11-19T04:15:58;5.45;;;2.78;;
82985;SDS011;72786;53.546;9.910;2023-11-19T04:18:24;5.75;;;3.10;;
82985;SDS011;72786;53.546;9.910;2023-11-19T04:20:50;6.70;;;3.15;;
82985;SDS011;72786;53.546;9.910;2023-11-19T04:23:17;7.75;;;3.40;;
82985;SDS011;72786;53.546;9.910;2023-11-19T04:25:43;8.02;;;3.80;;
82985;SDS011;72786;53.546;9.910;2023-11-19T04:28:10;7.40;;;3.67;;
82985;SDS011;72786;53.546;9.910;2023-11-19T04:30:37;8.32;;;4.13;;
82985;SDS011;72786;53.546;9.910;2023-11-19T04:33:04;9.70;;;4.40;;
82985;SDS011;72786;53.546;9.910;2023-11-19T04:35:30;7.72;;;3.80;;
82985;SDS011;72786;53.546;9.910;2023-11-19T04:37:57;8.50;;;4.10;;
82985;SDS011;72786;53.546;9.910;2023-11-19T04:40:24;8.57;;;3.95;;
82985;SDS011;72786;53.546;9.910;2023-11-19T04:42:50;7.43;;;3.60;;
82985;SDS011;72786;53.546;9.910;2023-11-19T04:45:17;11.90;;;5.63;;
82985;SDS011;72786;53.546;9.910;2023-11-19T04:47:43;13.57;;;5.10;;
82985;SDS011;72786;53.546;9.910;2023-11-19T04:50:10;12.82;;;4.90;;
82985;SDS011;72786;53.546;9.910;2023-11-19T04:52:38;11.77;;;4.60;;
82985;SDS011;72786;53.546;9.910;2023-11-19T04:55:12;10.32;;;5.30;;
82985;SDS011;72786;53.546;9.910;2023-11-19T04:57:40;10.60;;;4.70;;
82985;SDS011;72786;53.546;9.910;2023-11-19T05:00:06;10.70;;;5.05;;
82985;SDS011;72786;53.546;9.910;2023-11-19T05:02:36;11.93;;;5.40;;
82985;SDS011;72786;53.546;9.910;2023-11-19T05:05:03;9.90;;;4.70;;
82985;SDS011;72786;53.546;9.910;2023-11-19T05:07:31;18.92;;;6.80;;
82985;SDS011;72786;53.546;9.910;2023-11-19T05:09:57;35.97;;;11.00;;
82985;SDS011;72786;53.546;9.910;2023-11-19T05:12:24;42.15;;;12.85;;
82985;SDS011;72786;53.546;9.910;2023-11-19T05:14:51;43.83;;;12.63;;
82985;SDS011;72786;53.546;9.910;2023-11-19T05:17:17;36.25;;;12.88;;
82985;SDS011;72786;53.546;9.910;2023-11-19T05:19:45;38.92;;;12.27;;
82985;SDS011;72786;53.546;9.910;2023-11-19T05:22:12;41.78;;;12.27;;
82985;SDS011;72786;53.546;9.910;2023-11-19T05:24:39;37.10;;;12.93;;
82985;SDS011;72786;53.546;9.910;2023-11-19T05:27:07;38.03;;;13.05;;
82985;SDS011;72786;53.546;9.910;2023-11-19T05:29:34;31.30;;;11.75;;
82985;SDS011;72786;53.546;9.910;2023-11-19T05:32:00;34.17;;;12.65;;
82985;SDS011;72786;53.546;9.910;2023-11-19T05:34:27;38.50;;;12.65;;
82985;SDS011;72786;53.546;9.910;2023-11-19T05:36:53;33.92;;;12.02;;
82985;SDS011;72786;53.546;9.910;2023-11-19T05:39:20;38.83;;;12.20;;
82985;SDS011;72786;53.546;9.910;2023-11-19T05:41:46;34.30;;;11.90;;
82985;SDS011;72786;53.546;9.910;2023-11-19T05:44:13;38.80;;;12.30;;
82985;SDS011;72786;53.546;9.910;2023-11-19T05:46:39;33.75;;;12.68;;
82985;SDS011;72786;53.546;9.910;2023-11-19T05:49:09;38.63;;;11.98;;
82985;SDS011;72786;53.546;9.910;2023-11-19T05:51:38;33.90;;;11.35;;
82985;SDS011;72786;53.546;9.910;2023-11-19T05:54:08;33.47;;;13.00;;
82985;SDS011;72786;53.546;9.910;2023-11-19T05:56:36;31.15;;;11.40;;
82985;SDS011;72786;53.546;9.910;2023-11-19T05:59:03;39.65;;;12.48;;
82985;SDS011;72786;53.546;9.910;2023-11-19T06:01:36;34.35;;;12.02;;
82985;SDS011;72786;53.546;9.910;2023-11-19T06:04:02;36.03;;;11.05;;
82985;SDS011;72786;53.546;9.910;2023-11-19T06:06:29;33.25;;;11.45;;
82985;SDS011;72786;53.546;9.910;2023-11-19T06:08:56;31.67;;;11.38;;
82985;SDS011;72786;53.546;9.910;2023-11-19T06:11:22;39.08;;;12.38;;
82985;SDS011;72786;53.546;9.910;2023-11-19T06:13:49;33.75;;;10.95;;
82985;SDS011;72786;53.546;9.910;2023-11-19T06:16:17;44.95;;;11.93;;
82985;SDS011;72786;53.546;9.910;2023-11-19T06:18:44;34.92;;;11.55;;
82985;SDS011;72786;53.546;9.910;2023-11-19T06:21:11;32.97;;;10.07;;
82985;SDS011;72786;53.546;9.910;2023-11-19T06:23:38;34.63;;;11.20;;
82985;SDS011;72786;53.546;9.910;2023-11-19T06:26:05;27.35;;;10.40;;
82985;SDS011;72786;53.546;9.910;2023-11-19T06:28:31;28.20;;;9.45;;
82985;SDS011;72786;53.546;9.910;2023-11-19T06:30:58;28.73;;;9.10;;
82985;SDS011;72786;53.546;9.910;2023-11-19T06:33:24;28.75;;;8.90;;
82985;SDS011;72786;53.546;9.910;2023-11-19T06:35:51;25.77;;;8.90;;
82985;SDS011;72786;53.546;9.910;2023-11-19T06:38:18;28.73;;;8.43;;
82985;SDS011;72786;53.546;9.910;2023-11-19T06:40:44;30.10;;;9.45;;
82985;SDS011;72786;53.546;9.910;2023-11-19T06:43:11;35.53;;;9.40;;
82985;SDS011;72786;53.546;9.910;2023-11-19T06:45:38;33.92;;;9.35;;
82985;SDS011;72786;53.546;9.910;2023-11-19T06:48:04;37.58;;;9.32;;
82985;SDS011;72786;53.546;9.910;2023-11-19T06:50:31;31.25;;;7.63;;
82985;SDS011;72786;53.546;9.910;2023-11-19T06:52:58;21.80;;;8.10;;
82985;SDS011;72786;53.546;9.910;2023-11-19T06:55:25;29.55;;;8.63;;
82985;SDS011;72786;53.546;9.910;2023-11-19T06:57:52;29.20;;;7.53;;
82985;SDS011;72786;53.546;9.910;2023-11-19T07:00:19;28.33;;;6.90;;
82985;SDS011;72786;53.546;9.910;2023-11-19T07:02:46;32.35;;;8.90;;
82985;SDS011;72786;53.546;9.910;2023-11-19T07:05:12;22.35;;;6.70;;
82985;SDS011;72786;53.546;9.910;2023-11-19T07:07:39;26.80;;;7.47;;
82985;SDS011;72786;53.546;9.910;2023-11-19T07:10:06;22.10;;;6.20;;
82985;SDS011;72786;53.546;9.910;2023-11-19T07:12:35;26.92;;;5.70;;
82985;SDS011;72786;53.546;9.910;2023-11-19T07:15:02;22.77;;;5.85;;
82985;SDS011;72786;53.546;9.910;2023-11-19T07:17:30;25.50;;;5.90;;
82985;SDS011;72786;53.546;9.910;2023-11-19T07:19:56;22.90;;;5.50;;
82985;SDS011;72786;53.546;9.910;2023-11-19T07:22:26;20.63;;;5.25;;
82985;SDS011;72786;53.546;9.910;2023-11-19T07:24:55;23.27;;;4.78;;
82985;SDS011;72786;53.546;9.910;2023-11-19T07:27:22;19.55;;;4.70;;
82985;SDS011;72786;53.546;9.910;2023-11-19T07:29:50;20.42;;;4.45;;
82985;SDS011;72786;53.546;9.910;2023-11-19T07:32:17;21.73;;;4.03;;
82985;SDS011;72786;53.546;9.910;2023-11-19T07:34:44;19.73;;;3.83;;
82985;SDS011;72786;53.546;9.910;2023-11-19T07:37:10;19.55;;;4.03;;
82985;SDS011;72786;53.546;9.910;2023-11-19T07:39:37;27.10;;;4.78;;
82985;SDS011;72786;53.546;9.910;2023-11-19T07:42:07;17.05;;;3.97;;
82985;SDS011;72786;53.546;9.910;2023-11-19T07:44:33;17.08;;;4.30;;
82985;SDS011;72786;53.546;9.910;2023-11-19T07:47:00;21.15;;;5.15;;
82985;SDS011;72786;53.546;9.910;2023-11-19T07:49:26;23.45;;;5.05;;
82985;SDS011;72786;53.546;9.910;2023-11-19T07:51:53;29.48;;;4.57;;
82985;SDS011;72786;53.546;9.910;2023-11-19T07:54:19;29.13;;;4.68;;
82985;SDS011;72786;53.546;9.910;2023-11-19T07:56:47;23.33;;;3.60;;
82985;SDS011;72786;53.546;9.910;2023-11-19T07:59:16;18.67;;;3.78;;
82985;SDS011;72786;53.546;9.910;2023-11-19T08:01:42;27.40;;;4.05;;
82985;SDS011;72786;53.546;9.910;2023-11-19T08:04:08;20.48;;;3.42;;
82985;SDS011;72786;53.546;9.910;2023-11-19T08:06:35;42.97;;;10.65;;
82985;SDS011;72786;53.546;9.910;2023-11-19T08:09:02;33.70;;;10.95;;
82985;SDS011;72786;53.546;9.910;2023-11-19T08:11:28;31.13;;;6.65;;
82985;SDS011;72786;53.546;9.910;2023-11-19T08:13:55;32.08;;;5.30;;
82985;SDS011;72786;53.546;9.910;2023-11-19T08:16:21;24.95;;;4.50;;
82985;SDS011;72786;53.546;9.910;2023-11-19T08:18:48;29.58;;;4.80;;
82985;SDS011;72786;53.546;9.910;2023-11-19T08:21:14;29.45;;;4.43;;
82985;SDS011;72786;53.546;9.910;2023-11-19T08:23:41;23.75;;;3.78;;
82985;SDS011;72786;53.546;9.910;2023-11-19T08:26:07;31.15;;;3.90;;
82985;SDS011;72786;53.546;9.910;2023-11-19T08:28:34;22.17;;;3.60;;
82985;SDS011;72786;53.546;9.910;2023-11-19T08:31:01;27.63;;;3.50;;
82985;SDS011;72786;53.546;9.910;2023-11-19T08:33:30;21.63;;;3.10;;
82985;SDS011;72786;53.546;9.910;2023-11-19T08:35:56;25.25;;;3.40;;
82985;SDS011;72786;53.546;9.910;2023-11-19T08:38:23;22.33;;;4.00;;
82985;SDS011;72786;53.546;9.910;2023-11-19T08:40:52;23.98;;;3.65;;
82985;SDS011;72786;53.546;9.910;2023-11-19T08:43:19;27.27;;;3.80;;
82985;SDS011;72786;53.546;9.910;2023-11-19T08:45:45;25.25;;;3.60;;
82985;SDS011;72786;53.546;9.910;2023-11-19T08:48:12;34.70;;;3.78;;
82985;SDS011;72786;53.546;9.910;2023-11-19T08:50:38;28.17;;;3.70;;
82985;SDS011;72786;53.546;9.910;2023-11-19T08:53:05;28.25;;;3.63;;
82985;SDS011;72786;53.546;9.910;2023-11-19T08:55:33;21.90;;;3.88;;
82985;SDS011;72786;53.546;9.910;2023-11-19T08:57:59;24.45;;;3.60;;
82985;SDS011;72786;53.546;9.910;2023-11-19T09:00:26;25.65;;;3.63;;
82985;SDS011;72786;53.546;9.910;2023-11-19T09:02:52;27.75;;;4.13;;
82985;SDS011;72786;53.546;9.910;2023-11-19T09:05:19;26.55;;;3.47;;
82985;SDS011;72786;53.546;9.910;2023-11-19T09:07:45;23.38;;;3.42;;
82985;SDS011;72786;53.546;9.910;2023-11-19T09:10:12;27.73;;;3.95;;
82985;SDS011;72786;53.546;9.910;2023-11-19T09:12:38;28.92;;;3.83;;
82985;SDS011;72786;53.546;9.910;2023-11-19T09:15:05;22.92;;;4.03;;
82985;SDS011;72786;53.546;9.910;2023-11-19T09:17:32;23.80;;;3.33;;
82985;SDS011;72786;53.546;9.910;2023-11-19T09:19:59;29.38;;;3.58;;
82985;SDS011;72786;53.546;9.910;2023-11-19T09:22:25;25.58;;;4.78;;
82985;SDS011;72786;53.546;9.910;2023-11-19T09:24:52;29.42;;;3.72;;
82985;SDS011;72786;53.546;9.910;2023-11-19T09:27:18;31.17;;;3.90;;
82985;SDS011;72786;53.546;9.910;2023-11-19T09:29:44;20.65;;;3.92;;
82985;SDS011;72786;53.546;9.910;2023-11-19T09:32:12;24.77;;;3.38;;
82985;SDS011;72786;53.546;9.910;2023-11-19T09:34:39;20.10;;;3.28;;
82985;SDS011;72786;53.546;9.910;2023-11-19T09:37:05;23.35;;;3.70;;
82985;SDS011;72786;53.546;9.910;2023-11-19T09:39:47;27.60;;;4.30;;
82985;SDS011;72786;53.546;9.910;2023-11-19T09:42:13;24.33;;;4.55;;
82985;SDS011;72786;53.546;9.910;2023-11-19T09:44:40;24.13;;;3.80;;
82985;SDS011;72786;53.546;9.910;2023-11-19T09:47:10;26.90;;;3.05;;
82985;SDS011;72786;53.546;9.910;2023-11-19T09:49:37;23.98;;;3.47;;
82985;SDS011;72786;53.546;9.910;2023-11-19T09:52:05;26.95;;;3.72;;
82985;SDS011;72786;53.546;9.910;2023-11-19T09:54:31;21.73;;;3.92;;
82985;SDS011;72786;53.546;9.910;2023-11-19T09:56:58;27.75;;;3.97;;
82985;SDS011;72786;53.546;9.910;2023-11-19T09:59:29;24.67;;;3.10;;
82985;SDS011;72786;53.546;9.910;2023-11-19T10:01:57;20.02;;;2.90;;
82985;SDS011;72786;53.546;9.910;2023-11-19T10:04:23;28.10;;;3.15;;
82985;SDS011;72786;53.546;9.910;2023-11-19T10:06:51;28.70;;;3.05;;
82985;SDS011;72786;53.546;9.910;2023-11-19T10:09:18;26.60;;;3.53;;
82985;SDS011;72786;53.546;9.910;2023-11-19T10:11:45;24.42;;;3.40;;
82985;SDS011;72786;53.546;9.910;2023-11-19T10:14:12;28.52;;;3.53;;
82985;SDS011;72786;53.546;9.910;2023-11-19T10:16:39;24.42;;;3.63;;
82985;SDS011;72786;53.546;9.910;2023-11-19T10:19:06;28.80;;;4.07;;
82985;SDS011;72786;53.546;9.910;2023-11-19T10:21:33;32.03;;;3.97;;
82985;SDS011;72786;53.546;9.910;2023-11-19T10:24:00;28.98;;;3.92;;
82985;SDS011;72786;53.546;9.910;2023-11-19T10:26:27;34.78;;;5.30;;
82985;SDS011;72786;53.546;9.910;2023-11-19T10:28:54;26.90;;;4.45;;
82985;SDS011;72786;53.546;9.910;2023-11-19T10:31:21;29.73;;;4.22;;
82985;SDS011;72786;53.546;9.910;2023-11-19T10:33:52;25.27;;;4.60;;
82985;SDS011;72786;53.546;9.910;2023-11-19T10:36:20;27.35;;;3.03;;
82985;SDS011;72786;53.546;9.910;2023-11-19T10:38:53;36.28;;;4.38;;
82985;SDS011;72786;53.546;9.910;2023-11-19T10:41:27;21.83;;;3.13;;
82985;SDS011;72786;53.546;9.910;2023-11-19T10:43:57;26.23;;;3.60;;
82985;SDS011;72786;53.546;9.910;2023-11-19T10:46:40;33.28;;;5.00;;
82985;SDS011;72786;53.546;9.910;2023-11-19T10:49:08;28.08;;;3.67;;
82985;SDS011;72786;53.546;9.910;2023-11-19T10:51:34;34.03;;;3.42;;
82985;SDS011;72786;53.546;9.910;2023-11-19T10:54:04;34.85;;;5.32;;
82985;SDS011;72786;53.546;9.910;2023-11-19T10:56:32;28.73;;;3.35;;
82985;SDS011;72786;53.546;9.910;2023-11-19T10:59:00;23.17;;;2.88;;
82985;SDS011;72786;53.546;9.910;2023-11-19T11:01:32;29.00;;;3.15;;
82985;SDS011;72786;53.546;9.910;2023-11-19T11:04:07;22.05;;;3.90;;
82985;SDS011;72786;53.546;9.910;2023-11-19T11:06:41;23.08;;;2.92;;
82985;SDS011;72786;53.546;9.910;2023-11-19T11:09:08;34.45;;;3.65;;
82985;SDS011;72786;53.546;9.910;2023-11-19T11:11:41;23.58;;;4.32;;
82985;SDS011;72786;53.546;9.910;2023-11-19T11:14:13;29.55;;;3.83;;
82985;SDS011;72786;53.546;9.910;2023-11-19T11:16:43;23.05;;;3.13;;
82985;SDS011;72786;53.546;9.910;2023-11-19T11:19:10;28.73;;;3.45;;
82985;SDS011;72786;53.546;9.910;2023-11-19T11:21:38;28.20;;;3.67;;
82985;SDS011;72786;53.546;9.910;2023-11-19T11:24:13;26.50;;;4.25;;
82985;SDS011;72786;53.546;9.910;2023-11-19T11:30:05;23.48;;;3.60;;
82985;SDS011;72786;53.546;9.910;2023-11-19T11:32:43;31.88;;;5.03;;
82985;SDS011;72786;53.546;9.910;2023-11-19T11:35:16;21.67;;;3.53;;
82985;SDS011;72786;53.546;9.910;2023-11-19T11:38:21;19.67;;;3.47;;
82985;SDS011;72786;53.546;9.910;2023-11-19T11:43:50;23.05;;;2.65;;
82985;SDS011;72786;53.546;9.910;2023-11-19T11:49:03;25.17;;;2.80;;
82985;SDS011;72786;53.546;9.910;2023-11-19T11:57:02;28.60;;;3.15;;
82985;SDS011;72786;53.546;9.910;2023-11-19T11:59:54;22.70;;;2.55;;
82985;SDS011;72786;53.546;9.910;2023-11-19T12:02:19;33.90;;;4.70;;
82985;SDS011;72786;53.546;9.910;2023-11-19T12:04:51;24.30;;;3.40;;
82985;SDS011;72786;53.546;9.910;2023-11-19T12:07:20;21.08;;;3.75;;
82985;SDS011;72786;53.546;9.910;2023-11-19T12:09:52;22.48;;;2.72;;
82985;SDS011;72786;53.546;9.910;2023-11-19T12:12:33;25.27;;;3.13;;
82985;SDS011;72786;53.546;9.910;2023-11-19T12:15:02;22.95;;;2.75;;
82985;SDS011;72786;53.546;9.910;2023-11-19T12:17:43;19.15;;;3.05;;
82985;SDS011;72786;53.546;9.910;2023-11-19T12:20:15;21.40;;;2.67;;
82985;SDS011;72786;53.546;9.910;2023-11-19T12:22:59;23.00;;;2.75;;
82985;SDS011;72786;53.546;9.910;2023-11-19T12:25:33;22.02;;;2.97;;
82985;SDS011;72786;53.546;9.910;2023-11-19T12:28:00;21.85;;;3.97;;
82985;SDS011;72786;53.546;9.910;2023-11-19T12:30:30;23.45;;;2.95;;
82985;SDS011;72786;53.546;9.910;2023-11-19T12:32:57;19.35;;;3.00;;
82985;SDS011;72786;53.546;9.910;2023-11-19T12:35:24;23.58;;;3.35;;
82985;SDS011;72786;53.546;9.910;2023-11-19T12:37:50;20.25;;;3.13;;
82985;SDS011;72786;53.546;9.910;2023-11-19T12:40:18;23.77;;;3.35;;
82985;SDS011;72786;53.546;9.910;2023-11-19T12:42:46;27.60;;;4.13;;
82985;SDS011;72786;53.546;9.910;2023-11-19T12:45:14;23.45;;;2.47;;
82985;SDS011;72786;53.546;9.910;2023-11-19T12:47:43;19.33;;;2.50;;
82985;SDS011;72786;53.546;9.910;2023-11-19T12:50:10;24.02;;;3.22;;
82985;SDS011;72786;53.546;9.910;2023-11-19T12:52:37;21.00;;;3.08;;
82985;SDS011;72786;53.546;9.910;2023-11-19T12:55:04;22.88;;;2.83;;
82985;SDS011;72786;53.546;9.910;2023-11-19T12:57:52;18.15;;;3.15;;
82985;SDS011;72786;53.546;9.910;2023-11-19T13:00:24;25.15;;;3.20;;
82985;SDS011;72786;53.546;9.910;2023-11-19T13:02:52;22.02;;;3.35;;
82985;SDS011;72786;53.546;9.910;2023-11-19T13:05:24;25.60;;;4.57;;
82985;SDS011;72786;53.546;9.910;2023-11-19T13:08:04;21.50;;;2.65;;
82985;SDS011;72786;53.546;9.910;2023-11-19T13:10:32;18.60;;;3.00;;
82985;SDS011;72786;53.546;9.910;2023-11-19T13:13:03;27.10;;;3.83;;
82985;SDS011;72786;53.546;9.910;2023-11-19T13:15:32;22.80;;;3.28;;
82985;SDS011;72786;53.546;9.910;2023-11-19T13:17:59;20.65;;;3.03;;
82985;SDS011;72786;53.546;9.910;2023-11-19T13:20:26;33.22;;;4.53;;
82985;SDS011;72786;53.546;9.910;2023-11-19T13:23:00;20.55;;;3.17;;
82985;SDS011;72786;53.546;9.910;2023-11-19T13:25:28;29.88;;;3.13;;
82985;SDS011;72786;53.546;9.910;2023-11-19T13:27:56;19.30;;;2.47;;
82985;SDS011;72786;53.546;9.910;2023-11-19T13:30:23;18.70;;;2.72;;
82985;SDS011;72786;53.546;9.910;2023-11-19T13:32:53;17.85;;;2.50;;
82985;SDS011;72786;53.546;9.910;2023-11-19T13:35:21;20.85;;;2.95;;
82985;SDS011;72786;53.546;9.910;2023-11-19T13:37:48;19.88;;;2.80;;
82985;SDS011;72786;53.546;9.910;2023-11-19T13:40:15;19.27;;;3.30;;
82985;SDS011;72786;53.546;9.910;2023-11-19T13:42:42;23.50;;;3.08;;
82985;SDS011;72786;53.546;9.910;2023-11-19T13:45:14;24.13;;;3.08;;
82985;SDS011;72786;53.546;9.910;2023-11-19T13:47:41;26.52;;;3.50;;
82985;SDS011;72786;53.546;9.910;2023-11-19T13:50:09;27.42;;;4.95;;
82985;SDS011;72786;53.546;9.910;2023-11-19T13:52:38;20.08;;;2.47;;
82985;SDS011;72786;53.546;9.910;2023-11-19T13:55:05;16.92;;;2.22;;
82985;SDS011;72786;53.546;9.910;2023-11-19T13:57:34;30.63;;;4.18;;
82985;SDS011;72786;53.546;9.910;2023-11-19T14:00:02;21.40;;;3.00;;
82985;SDS011;72786;53.546;9.910;2023-11-19T14:02:34;27.63;;;3.65;;
82985;SDS011;72786;53.546;9.910;2023-11-19T14:05:00;26.80;;;3.15;;
82985;SDS011;72786;53.546;9.910;2023-11-19T14:07:27;13.80;;;2.55;;
82985;SDS011;72786;53.546;9.910;2023-11-19T14:09:54;23.98;;;4.07;;
82985;SDS011;72786;53.546;9.910;2023-11-19T14:12:20;19.33;;;2.35;;
82985;SDS011;72786;53.546;9.910;2023-11-19T14:14:47;25.77;;;3.28;;
82985;SDS011;72786;53.546;9.910;2023-11-19T14:17:13;23.90;;;2.63;;
82985;SDS011;72786;53.546;9.910;2023-11-19T14:19:42;18.67;;;2.50;;
82985;SDS011;72786;53.546;9.910;2023-11-19T14:22:08;24.73;;;2.60;;
82985;SDS011;72786;53.546;9.910;2023-11-19T14:24:35;20.80;;;3.08;;
82985;SDS011;72786;53.546;9.910;2023-11-19T14:27:02;25.73;;;2.97;;
82985;SDS011;72786;53.546;9.910;2023-11-19T14:29:28;23.77;;;2.75;;
82985;SDS011;72786;53.546;9.910;2023-11-19T14:31:56;22.20;;;2.97;;
82985;SDS011;72786;53.546;9.910;2023-11-19T14:34:25;18.55;;;3.40;;
82985;SDS011;72786;53.546;9.910;2023-11-19T14:36:52;23.13;;;3.17;;
82985;SDS011;72786;53.546;9.910;2023-11-19T14:39:20;21.13;;;2.70;;
82985;SDS011;72786;53.546;9.910;2023-11-19T14:41:46;19.73;;;3.92;;
82985;SDS011;72786;53.546;9.910;2023-11-19T14:44:13;23.35;;;2.97;;
82985;SDS011;72786;53.546;9.910;2023-11-19T14:46:39;16.50;;;2.70;;
82985;SDS011;72786;53.546;9.910;2023-11-19T14:49:06;19.77;;;3.25;;
82985;SDS011;72786;53.546;9.910;2023-11-19T14:51:37;21.17;;;2.67;;
82985;SDS011;72786;53.546;9.910;2023-11-19T14:54:04;24.10;;;2.83;;
82985;SDS011;72786;53.546;9.910;2023-11-19T14:56:32;24.63;;;2.80;;
82985;SDS011;72786;53.546;9.910;2023-11-19T14:58:58;19.02;;;3.42;;